sensor_id;sensor_type;location;lat;lon;timestamp;temperature;humidity
24436;DHT22;12616;52.470;13.436;2022-07-30T00:00:12;20.50;99.90
24436;DHT22;12616;52.470;13.436;2022-07-30T00:02:42;20.40;99.90
24436;DHT22;12616;52.470;13.436;2022-07-30T00:05:09;20.40;99.90
24436;DHT22;12616;52.470;13.436;2022-07-30T00:07:36;20.40;99.90
24436;DHT22;12616;52.470;13.436;2022-07-30T00:10:03;20.30;99.90
24436;DHT22;12616;52.470;13.436;2022-07-30T00:12:30;20.30;99.90
24436;DHT22;12616;52.470;13.436;2022-07-30T00:14:57;20.30;99.90
24436;DHT22;12616;52.470;13.436;2022-07-30T00:17:24;20.30;99.90
24436;DHT22;12616;52.470;13.436;2022-07-30T00:19:52;20.20;99.90
24436;DHT22;12616;52.470;13.436;2022-07-30T00:22:18;20.20;99.90
24436;DHT22;12616;52.470;13.436;2022-07-30T00:24:45;20.20;99.90
24436;DHT22;12616;52.470;13.436;2022-07-30T00:27:12;20.20;99.90
24436;DHT22;12616;52.470;13.436;2022-07-30T00:29:39;20.20;99.90
24436;DHT22;12616;52.470;13.436;2022-07-30T00:32:06;20.20;99.90
24436;DHT22;12616;52.470;13.436;2022-07-30T00:34:33;20.20;99.90
24436;DHT22;12616;52.470;13.436;2022-07-30T00:37:01;20.20;99.90
24436;DHT22;12616;52.470;13.436;2022-07-30T00:39:28;20.20;99.90
24436;DHT22;12616;52.470;13.436;2022-07-30T00:41:56;20.10;99.90
24436;DHT22;12616;52.470;13.436;2022-07-30T00:44:24;20.00;99.90
24436;DHT22;12616;52.470;13.436;2022-07-30T00:46:51;20.10;99.90
24436;DHT22;12616;52.470;13.436;2022-07-30T00:49:18;20.10;99.90
24436;DHT22;12616;52.470;13.436;2022-07-30T00:51:45;20.10;99.90
24436;DHT22;12616;52.470;13.436;2022-07-30T00:54:13;20.10;99.90
24436;DHT22;12616;52.470;13.436;2022-07-30T00:56:41;20.00;99.90
24436;DHT22;12616;52.470;13.436;2022-07-30T00:59:08;20.00;99.90
24436;DHT22;12616;52.470;13.436;2022-07-30T01:01:35;19.90;99.90
24436;DHT22;12616;52.470;13.436;2022-07-30T01:04:02;19.90;99.90
24436;DHT22;12616;52.470;13.436;2022-07-30T01:06:29;19.90;99.90
24436;DHT22;12616;52.470;13.436;2022-07-30T01:08:56;19.90;99.90
24436;DHT22;12616;52.470;13.436;2022-07-30T01:11:30;19.90;99.90
24436;DHT22;12616;52.470;13.436;2022-07-30T01:13:58;19.80;99.90
24436;DHT22;12616;52.470;13.436;2022-07-30T01:16:25;19.80;99.90
24436;DHT22;12616;52.470;13.436;2022-07-30T01:18:53;19.80;99.90
24436;DHT22;12616;52.470;13.436;2022-07-30T01:21:40;19.80;99.90
24436;DHT22;12616;52.470;13.436;2022-07-30T01:24:19;19.70;99.90
24436;DHT22;12616;52.470;13.436;2022-07-30T01:26:49;19.70;99.90
24436;DHT22;12616;52.470;13.436;2022-07-30T01:29:17;19.70;1.00
24436;DHT22;12616;52.470;13.436;2022-07-30T01:31:45;19.60;1.00
24436;DHT22;12616;52.470;13.436;2022-07-30T01:34:14;19.60;1.00
24436;DHT22;12616;52.470;13.436;2022-07-30T01:36:43;19.70;1.00
24436;DHT22;12616;52.470;13.436;2022-07-30T01:39:12;19.70;1.00
24436;DHT22;12616;52.470;13.436;2022-07-30T01:41:41;19.60;1.00
24436;DHT22;12616;52.470;13.436;2022-07-30T01:44:11;19.60;1.00
24436;DHT22;12616;52.470;13.436;2022-07-30T01:46:39;19.60;1.00
24436;DHT22;12616;52.470;13.436;2022-07-30T01:49:07;19.50;1.00
24436;DHT22;12616;52.470;13.436;2022-07-30T01:51:36;19.50;1.00
24436;DHT22;12616;52.470;13.436;2022-07-30T01:54:06;19.50;1.00
24436;DHT22;12616;52.470;13.436;2022-07-30T01:56:34;19.50;1.00
24436;DHT22;12616;52.470;13.436;2022-07-30T01:59:04;19.50;1.00
24436;DHT22;12616;52.470;13.436;2022-07-30T02:01:34;19.50;1.00
24436;DHT22;12616;52.470;13.436;2022-07-30T02:04:02;19.50;1.00
24436;DHT22;12616;52.470;13.436;2022-07-30T02:06:31;19.50;1.00
24436;DHT22;12616;52.470;13.436;2022-07-30T02:09:03;19.40;1.00
24436;DHT22;12616;52.470;13.436;2022-07-30T02:11:31;19.40;1.00
24436;DHT22;12616;52.470;13.436;2022-07-30T02:14:22;19.40;1.00
24436;DHT22;12616;52.470;13.436;2022-07-30T02:16:53;19.40;1.00
24436;DHT22;12616;52.470;13.436;2022-07-30T02:19:25;19.30;1.00
24436;DHT22;12616;52.470;13.436;2022-07-30T02:21:58;19.40;1.00
24436;DHT22;12616;52.470;13.436;2022-07-30T02:24:28;19.30;1.00
24436;DHT22;12616;52.470;13.436;2022-07-30T02:27:01;19.30;1.00
24436;DHT22;12616;52.470;13.436;2022-07-30T02:29:29;19.30;1.00
24436;DHT22;12616;52.470;13.436;2022-07-30T02:31:59;19.30;1.00
24436;DHT22;12616;52.470;13.436;2022-07-30T02:34:28;19.20;1.00
24436;DHT22;12616;52.470;13.436;2022-07-30T02:36:58;19.20;1.00
24436;DHT22;12616;52.470;13.436;2022-07-30T02:39:26;19.20;1.00
24436;DHT22;12616;52.470;13.436;2022-07-30T02:41:55;19.20;1.00
24436;DHT22;12616;52.470;13.436;2022-07-30T02:44:24;19.20;1.00
24436;DHT22;12616;52.470;13.436;2022-07-30T02:46:54;19.20;1.00
24436;DHT22;12616;52.470;13.436;2022-07-30T02:49:23;19.10;1.00
24436;DHT22;12616;52.470;13.436;2022-07-30T02:51:50;19.10;1.00
24436;DHT22;12616;52.470;13.436;2022-07-30T02:54:19;19.10;1.00
24436;DHT22;12616;52.470;13.436;2022-07-30T02:56:48;19.10;1.00
24436;DHT22;12616;52.470;13.436;2022-07-30T02:59:17;19.10;1.00
24436;DHT22;12616;52.470;13.436;2022-07-30T03:01:45;19.00;1.00
24436;DHT22;12616;52.470;13.436;2022-07-30T03:04:13;19.00;1.00
24436;DHT22;12616;52.470;13.436;2022-07-30T03:06:44;19.00;1.00
24436;DHT22;12616;52.470;13.436;2022-07-30T03:09:11;18.90;1.00
24436;DHT22;12616;52.470;13.436;2022-07-30T03:11:39;19.00;1.00
24436;DHT22;12616;52.470;13.436;2022-07-30T03:14:06;19.00;1.00
24436;DHT22;12616;52.470;13.436;2022-07-30T03:16:36;18.90;1.00
24436;DHT22;12616;52.470;13.436;2022-07-30T03:19:06;18.90;1.00
24436;DHT22;12616;52.470;13.436;2022-07-30T03:21:34;18.90;1.00
24436;DHT22;12616;52.470;13.436;2022-07-30T03:24:05;18.90;1.00
24436;DHT22;12616;52.470;13.436;2022-07-30T03:26:34;18.80;1.00
24436;DHT22;12616;52.470;13.436;2022-07-30T03:29:02;18.80;1.00
24436;DHT22;12616;52.470;13.436;2022-07-30T03:31:29;18.80;1.00
24436;DHT22;12616;52.470;13.436;2022-07-30T03:33:56;18.80;1.00
24436;DHT22;12616;52.470;13.436;2022-07-30T03:36:24;18.80;1.00
24436;DHT22;12616;52.470;13.436;2022-07-30T03:38:52;18.80;1.00
24436;DHT22;12616;52.470;13.436;2022-07-30T03:41:21;18.70;1.00
24436;DHT22;12616;52.470;13.436;2022-07-30T03:43:48;18.70;1.00
24436;DHT22;12616;52.470;13.436;2022-07-30T03:46:15;18.70;1.00
24436;DHT22;12616;52.470;13.436;2022-07-30T03:48:42;18.70;1.00
24436;DHT22;12616;52.470;13.436;2022-07-30T03:51:10;18.70;1.00
24436;DHT22;12616;52.470;13.436;2022-07-30T03:53:39;18.70;1.00
24436;DHT22;12616;52.470;13.436;2022-07-30T03:56:06;18.70;1.00
24436;DHT22;12616;52.470;13.436;2022-07-30T03:58:36;18.70;1.00
24436;DHT22;12616;52.470;13.436;2022-07-30T04:01:03;18.70;1.00
24436;DHT22;12616;52.470;13.436;2022-07-30T04:03:33;18.70;1.00
24436;DHT22;12616;52.470;13.436;2022-07-30T04:06:00;18.90;1.00
24436;DHT22;12616;52.470;13.436;2022-07-30T04:08:27;18.80;1.00
24436;DHT22;12616;52.470;13.436;2022-07-30T04:10:54;18.90;1.00
24436;DHT22;12616;52.470;13.436;2022-07-30T04:13:21;18.90;1.00
24436;DHT22;12616;52.470;13.436;2022-07-30T04:15:57;18.70;1.00
24436;DHT22;12616;52.470;13.436;2022-07-30T04:18:26;18.60;1.00
24436;DHT22;12616;52.470;13.436;2022-07-30T04:20:57;18.60;1.00
24436;DHT22;12616;52.470;13.436;2022-07-30T04:23:25;18.60;1.00
24436;DHT22;12616;52.470;13.436;2022-07-30T04:25:52;18.60;1.00
24436;DHT22;12616;52.470;13.436;2022-07-30T04:28:20;18.70;1.00
24436;DHT22;12616;52.470;13.436;2022-07-30T04:30:47;18.80;1.00
24436;DHT22;12616;52.470;13.436;2022-07-30T04:33:15;18.70;1.00
24436;DHT22;12616;52.470;13.436;2022-07-30T04:35:41;18.70;1.00
24436;DHT22;12616;52.470;13.436;2022-07-30T04:38:08;18.80;1.00
24436;DHT22;12616;52.470;13.436;2022-07-30T04:40:36;18.60;1.00
24436;DHT22;12616;52.470;13.436;2022-07-30T04:43:02;18.70;1.00
24436;DHT22;12616;52.470;13.436;2022-07-30T04:45:29;18.80;1.00
24436;DHT22;12616;52.470;13.436;2022-07-30T04:47:56;18.80;1.00
24436;DHT22;12616;52.470;13.436;2022-07-30T04:50:26;18.80;1.00
24436;DHT22;12616;52.470;13.436;2022-07-30T04:52:54;18.90;1.00
24436;DHT22;12616;52.470;13.436;2022-07-30T04:55:22;18.80;1.00
24436;DHT22;12616;52.470;13.436;2022-07-30T04:57:50;18.70;1.00
24436;DHT22;12616;52.470;13.436;2022-07-30T05:00:18;18.70;1.00
24436;DHT22;12616;52.470;13.436;2022-07-30T05:02:45;18.70;1.00
24436;DHT22;12616;52.470;13.436;2022-07-30T05:05:15;18.70;1.00
24436;DHT22;12616;52.470;13.436;2022-07-30T05:07:44;18.90;1.00
24436;DHT22;12616;52.470;13.436;2022-07-30T05:10:12;18.90;1.00
24436;DHT22;12616;52.470;13.436;2022-07-30T05:12:39;18.80;1.00
24436;DHT22;12616;52.470;13.436;2022-07-30T05:15:07;18.80;1.00
24436;DHT22;12616;52.470;13.436;2022-07-30T05:17:35;18.70;1.00
24436;DHT22;12616;52.470;13.436;2022-07-30T05:20:02;18.70;1.00
24436;DHT22;12616;52.470;13.436;2022-07-30T05:22:29;18.70;1.00
24436;DHT22;12616;52.470;13.436;2022-07-30T05:24:57;18.70;1.00
24436;DHT22;12616;52.470;13.436;2022-07-30T05:27:23;18.70;1.00
24436;DHT22;12616;52.470;13.436;2022-07-30T05:29:50;18.80;1.00
24436;DHT22;12616;52.470;13.436;2022-07-30T05:32:17;18.90;1.00
24436;DHT22;12616;52.470;13.436;2022-07-30T05:34:46;18.90;1.00
24436;DHT22;12616;52.470;13.436;2022-07-30T05:37:13;19.00;1.00
24436;DHT22;12616;52.470;13.436;2022-07-30T05:39:40;18.80;1.00
24436;DHT22;12616;52.470;13.436;2022-07-30T05:42:08;18.80;1.00
24436;DHT22;12616;52.470;13.436;2022-07-30T05:44:35;18.80;1.00
24436;DHT22;12616;52.470;13.436;2022-07-30T05:47:01;18.80;1.00
24436;DHT22;12616;52.470;13.436;2022-07-30T05:49:28;18.90;1.00
24436;DHT22;12616;52.470;13.436;2022-07-30T05:51:55;18.90;1.00
24436;DHT22;12616;52.470;13.436;2022-07-30T05:54:22;19.10;1.00
24436;DHT22;12616;52.470;13.436;2022-07-30T05:56:48;19.10;1.00
24436;DHT22;12616;52.470;13.436;2022-07-30T05:59:16;19.20;1.00
24436;DHT22;12616;52.470;13.436;2022-07-30T06:01:43;19.10;1.00
24436;DHT22;12616;52.470;13.436;2022-07-30T06:04:09;19.30;1.00
24436;DHT22;12616;52.470;13.436;2022-07-30T06:06:36;19.30;1.00
24436;DHT22;12616;52.470;13.436;2022-07-30T06:09:03;19.40;1.00
24436;DHT22;12616;52.470;13.436;2022-07-30T06:11:30;19.30;1.00
24436;DHT22;12616;52.470;13.436;2022-07-30T06:13:56;19.20;1.00
24436;DHT22;12616;52.470;13.436;2022-07-30T06:16:24;19.10;1.00
24436;DHT22;12616;52.470;13.436;2022-07-30T06:18:51;19.10;1.00
24436;DHT22;12616;52.470;13.436;2022-07-30T06:21:18;19.10;1.00
24436;DHT22;12616;52.470;13.436;2022-07-30T06:23:44;19.10;1.00
24436;DHT22;12616;52.470;13.436;2022-07-30T06:26:12;19.20;1.00
24436;DHT22;12616;52.470;13.436;2022-07-30T06:28:38;19.20;1.00
24436;DHT22;12616;52.470;13.436;2022-07-30T06:31:05;19.20;1.00
24436;DHT22;12616;52.470;13.436;2022-07-30T06:33:33;19.30;1.00
24436;DHT22;12616;52.470;13.436;2022-07-30T06:36:00;19.40;1.00
24436;DHT22;12616;52.470;13.436;2022-07-30T06:38:27;19.30;1.00
24436;DHT22;12616;52.470;13.436;2022-07-30T06:40:53;19.40;1.00
24436;DHT22;12616;52.470;13.436;2022-07-30T06:43:20;19.50;1.00
24436;DHT22;12616;52.470;13.436;2022-07-30T06:45:47;19.60;1.00
24436;DHT22;12616;52.470;13.436;2022-07-30T06:48:14;19.60;1.00
24436;DHT22;12616;52.470;13.436;2022-07-30T06:50:42;19.50;1.00
24436;DHT22;12616;52.470;13.436;2022-07-30T06:53:08;19.50;1.00
24436;DHT22;12616;52.470;13.436;2022-07-30T06:55:35;19.50;1.00
24436;DHT22;12616;52.470;13.436;2022-07-30T06:58:02;19.60;1.00
24436;DHT22;12616;52.470;13.436;2022-07-30T07:00:29;19.60;1.00
24436;DHT22;12616;52.470;13.436;2022-07-30T07:02:56;19.70;1.00
24436;DHT22;12616;52.470;13.436;2022-07-30T07:05:22;19.80;1.00
24436;DHT22;12616;52.470;13.436;2022-07-30T07:07:54;19.70;1.00
24436;DHT22;12616;52.470;13.436;2022-07-30T07:10:21;19.80;1.00
24436;DHT22;12616;52.470;13.436;2022-07-30T07:12:48;19.80;1.00
24436;DHT22;12616;52.470;13.436;2022-07-30T07:15:14;19.80;1.00
24436;DHT22;12616;52.470;13.436;2022-07-30T07:17:41;19.80;1.00
24436;DHT22;12616;52.470;13.436;2022-07-30T07:20:09;19.90;1.00
24436;DHT22;12616;52.470;13.436;2022-07-30T07:22:36;20.00;1.00
24436;DHT22;12616;52.470;13.436;2022-07-30T07:25:05;20.00;1.00
24436;DHT22;12616;52.470;13.436;2022-07-30T07:27:31;19.90;1.00
24436;DHT22;12616;52.470;13.436;2022-07-30T07:29:58;20.00;1.00
24436;DHT22;12616;52.470;13.436;2022-07-30T07:32:25;20.30;1.00
24436;DHT22;12616;52.470;13.436;2022-07-30T07:34:54;20.20;1.00
24436;DHT22;12616;52.470;13.436;2022-07-30T07:37:21;20.10;1.00
24436;DHT22;12616;52.470;13.436;2022-07-30T07:39:48;20.10;1.00
24436;DHT22;12616;52.470;13.436;2022-07-30T07:42:16;20.10;1.00
24436;DHT22;12616;52.470;13.436;2022-07-30T07:44:42;20.10;1.00
24436;DHT22;12616;52.470;13.436;2022-07-30T07:47:09;20.20;1.00
24436;DHT22;12616;52.470;13.436;2022-07-30T07:49:36;20.40;1.00
24436;DHT22;12616;52.470;13.436;2022-07-30T07:52:03;20.40;1.00
24436;DHT22;12616;52.470;13.436;2022-07-30T07:54:30;20.40;1.00
24436;DHT22;12616;52.470;13.436;2022-07-30T07:56:56;20.40;1.00
24436;DHT22;12616;52.470;13.436;2022-07-30T07:59:25;20.40;1.00
24436;DHT22;12616;52.470;13.436;2022-07-30T08:01:51;20.50;1.00
24436;DHT22;12616;52.470;13.436;2022-07-30T08:04:18;20.60;1.00
24436;DHT22;12616;52.470;13.436;2022-07-30T08:06:45;20.70;1.00
24436;DHT22;12616;52.470;13.436;2022-07-30T08:09:11;20.80;1.00
24436;DHT22;12616;52.470;13.436;2022-07-30T08:11:38;20.90;1.00
24436;DHT22;12616;52.470;13.436;2022-07-30T08:14:05;20.90;1.00
24436;DHT22;12616;52.470;13.436;2022-07-30T08:16:33;21.00;1.00
24436;DHT22;12616;52.470;13.436;2022-07-30T08:19:00;21.10;1.00
24436;DHT22;12616;52.470;13.436;2022-07-30T08:21:26;20.80;1.00
24436;DHT22;12616;52.470;13.436;2022-07-30T08:23:53;20.80;1.00
24436;DHT22;12616;52.470;13.436;2022-07-30T08:26:20;20.80;1.00
24436;DHT22;12616;52.470;13.436;2022-07-30T08:28:47;20.80;1.00
24436;DHT22;12616;52.470;13.436;2022-07-30T08:31:13;20.90;1.00
24436;DHT22;12616;52.470;13.436;2022-07-30T08:33:41;21.00;1.00
24436;DHT22;12616;52.470;13.436;2022-07-30T08:36:08;21.00;1.00
24436;DHT22;12616;52.470;13.436;2022-07-30T08:38:36;20.70;1.00
24436;DHT22;12616;52.470;13.436;2022-07-30T08:41:03;20.90;1.00
24436;DHT22;12616;52.470;13.436;2022-07-30T08:43:30;21.00;1.00
24436;DHT22;12616;52.470;13.436;2022-07-30T08:45:58;21.10;1.00
24436;DHT22;12616;52.470;13.436;2022-07-30T08:48:27;21.40;1.00
24436;DHT22;12616;52.470;13.436;2022-07-30T08:50:56;21.50;1.00
24436;DHT22;12616;52.470;13.436;2022-07-30T08:53:24;21.50;1.00
24436;DHT22;12616;52.470;13.436;2022-07-30T08:55:51;21.70;1.00
24436;DHT22;12616;52.470;13.436;2022-07-30T08:58:25;21.60;1.00
24436;DHT22;12616;52.470;13.436;2022-07-30T09:00:53;21.40;1.00
24436;DHT22;12616;52.470;13.436;2022-07-30T09:03:20;21.30;1.00
24436;DHT22;12616;52.470;13.436;2022-07-30T09:05:47;21.40;1.00
24436;DHT22;12616;52.470;13.436;2022-07-30T09:08:15;21.50;1.00
24436;DHT22;12616;52.470;13.436;2022-07-30T09:10:42;21.50;1.00
24436;DHT22;12616;52.470;13.436;2022-07-30T09:13:23;21.70;1.00
24436;DHT22;12616;52.470;13.436;2022-07-30T09:15:50;21.80;1.00
24436;DHT22;12616;52.470;13.436;2022-07-30T09:18:26;21.70;1.00
24436;DHT22;12616;52.470;13.436;2022-07-30T09:20:54;21.90;1.00
24436;DHT22;12616;52.470;13.436;2022-07-30T09:23:22;22.10;1.00
24436;DHT22;12616;52.470;13.436;2022-07-30T09:25:49;22.00;1.00
24436;DHT22;12616;52.470;13.436;2022-07-30T09:28:27;22.30;1.00
24436;DHT22;12616;52.470;13.436;2022-07-30T09:30:55;22.20;1.00
24436;DHT22;12616;52.470;13.436;2022-07-30T09:33:36;22.30;1.00
24436;DHT22;12616;52.470;13.436;2022-07-30T09:36:04;22.40;1.00
24436;DHT22;12616;52.470;13.436;2022-07-30T09:38:44;22.80;1.00
24436;DHT22;12616;52.470;13.436;2022-07-30T09:41:12;22.50;1.00
24436;DHT22;12616;52.470;13.436;2022-07-30T09:43:43;22.50;1.00
24436;DHT22;12616;52.470;13.436;2022-07-30T09:46:10;22.60;1.00
24436;DHT22;12616;52.470;13.436;2022-07-30T09:48:37;22.70;1.00
24436;DHT22;12616;52.470;13.436;2022-07-30T09:51:04;22.60;1.00
24436;DHT22;12616;52.470;13.436;2022-07-30T09:53:31;22.60;1.00
24436;DHT22;12616;52.470;13.436;2022-07-30T09:55:59;22.50;1.00
24436;DHT22;12616;52.470;13.436;2022-07-30T09:58:37;22.40;1.00
24436;DHT22;12616;52.470;13.436;2022-07-30T10:01:04;22.60;1.00
24436;DHT22;12616;52.470;13.436;2022-07-30T10:03:31;22.70;1.00
24436;DHT22;12616;52.470;13.436;2022-07-30T10:05:59;22.70;1.00
24436;DHT22;12616;52.470;13.436;2022-07-30T10:08:40;22.50;1.00
24436;DHT22;12616;52.470;13.436;2022-07-30T10:11:12;23.00;1.00
24436;DHT22;12616;52.470;13.436;2022-07-30T10:13:40;23.10;1.00
24436;DHT22;12616;52.470;13.436;2022-07-30T10:16:08;23.10;1.00
24436;DHT22;12616;52.470;13.436;2022-07-30T10:18:35;23.50;1.00
24436;DHT22;12616;52.470;13.436;2022-07-30T10:21:03;23.30;1.00
24436;DHT22;12616;52.470;13.436;2022-07-30T10:23:30;23.30;1.00
24436;DHT22;12616;52.470;13.436;2022-07-30T10:25:57;23.30;1.00
24436;DHT22;12616;52.470;13.436;2022-07-30T10:28:26;23.30;1.00
24436;DHT22;12616;52.470;13.436;2022-07-30T10:30:54;23.50;1.00
24436;DHT22;12616;52.470;13.436;2022-07-30T10:33:25;23.60;1.00
24436;DHT22;12616;52.470;13.436;2022-07-30T10:35:53;23.60;1.00
24436;DHT22;12616;52.470;13.436;2022-07-30T10:38:21;23.90;1.00
24436;DHT22;12616;52.470;13.436;2022-07-30T10:40:52;23.70;1.00
24436;DHT22;12616;52.470;13.436;2022-07-30T10:43:58;23.70;1.00
24436;DHT22;12616;52.470;13.436;2022-07-30T10:46:43;23.70;1.00
24436;DHT22;12616;52.470;13.436;2022-07-30T10:49:13;23.80;1.00
24436;DHT22;12616;52.470;13.436;2022-07-30T10:51:43;23.90;1.00
24436;DHT22;12616;52.470;13.436;2022-07-30T10:54:39;23.90;1.00
24436;DHT22;12616;52.470;13.436;2022-07-30T10:57:09;23.80;1.00
24436;DHT22;12616;52.470;13.436;2022-07-30T11:00:12;23.80;99.90
24436;DHT22;12616;52.470;13.436;2022-07-30T11:05:32;23.90;99.90
24436;DHT22;12616;52.470;13.436;2022-07-30T11:08:30;23.90;1.00
24436;DHT22;12616;52.470;13.436;2022-07-30T11:10:58;24.00;1.00
24436;DHT22;12616;52.470;13.436;2022-07-30T11:13:48;24.10;99.90
24436;DHT22;12616;52.470;13.436;2022-07-30T11:16:17;24.20;1.00
24436;DHT22;12616;52.470;13.436;2022-07-30T11:19:06;24.20;99.90
24436;DHT22;12616;52.470;13.436;2022-07-30T11:21:33;24.20;1.00
24436;DHT22;12616;52.470;13.436;2022-07-30T11:24:01;24.30;1.00
24436;DHT22;12616;52.470;13.436;2022-07-30T11:26:50;24.30;99.90
24436;DHT22;12616;52.470;13.436;2022-07-30T11:29:32;24.50;99.90
24436;DHT22;12616;52.470;13.436;2022-07-30T11:32:25;24.60;99.90
24436;DHT22;12616;52.470;13.436;2022-07-30T11:35:10;24.70;99.90
24436;DHT22;12616;52.470;13.436;2022-07-30T11:37:58;24.70;99.90
24436;DHT22;12616;52.470;13.436;2022-07-30T11:40:26;24.70;99.90
24436;DHT22;12616;52.470;13.436;2022-07-30T11:43:18;24.80;99.90
24436;DHT22;12616;52.470;13.436;2022-07-30T11:45:46;24.70;99.90
24436;DHT22;12616;52.470;13.436;2022-07-30T11:48:16;24.80;99.90
24436;DHT22;12616;52.470;13.436;2022-07-30T11:50:44;24.90;99.90
24436;DHT22;12616;52.470;13.436;2022-07-30T11:53:15;24.90;99.90
24436;DHT22;12616;52.470;13.436;2022-07-30T11:55:44;24.90;99.90
24436;DHT22;12616;52.470;13.436;2022-07-30T11:58:22;25.00;99.90
24436;DHT22;12616;52.470;13.436;2022-07-30T12:00:49;25.00;99.90
24436;DHT22;12616;52.470;13.436;2022-07-30T12:03:19;25.00;99.90
24436;DHT22;12616;52.470;13.436;2022-07-30T12:08:15;25.00;99.90
24436;DHT22;12616;52.470;13.436;2022-07-30T12:10:44;25.10;99.90
24436;DHT22;12616;52.470;13.436;2022-07-30T12:13:19;25.20;99.90
24436;DHT22;12616;52.470;13.436;2022-07-30T12:15:47;25.20;99.90
24436;DHT22;12616;52.470;13.436;2022-07-30T12:18:22;25.20;99.90
24436;DHT22;12616;52.470;13.436;2022-07-30T12:20:53;25.20;99.90
24436;DHT22;12616;52.470;13.436;2022-07-30T12:23:20;25.10;99.90
24436;DHT22;12616;52.470;13.436;2022-07-30T12:25:47;25.20;99.90
24436;DHT22;12616;52.470;13.436;2022-07-30T12:28:19;25.30;99.90
24436;DHT22;12616;52.470;13.436;2022-07-30T12:30:46;25.40;99.90
24436;DHT22;12616;52.470;13.436;2022-07-30T12:33:13;25.40;99.90
24436;DHT22;12616;52.470;13.436;2022-07-30T12:35:46;25.30;99.90
24436;DHT22;12616;52.470;13.436;2022-07-30T12:38:13;25.30;99.90
24436;DHT22;12616;52.470;13.436;2022-07-30T12:40:51;25.20;99.90
24436;DHT22;12616;52.470;13.436;2022-07-30T12:43:42;25.20;99.90
24436;DHT22;12616;52.470;13.436;2022-07-30T12:46:10;25.40;99.90
24436;DHT22;12616;52.470;13.436;2022-07-30T12:48:37;25.50;99.90
24436;DHT22;12616;52.470;13.436;2022-07-30T12:51:06;25.50;99.90
24436;DHT22;12616;52.470;13.436;2022-07-30T12:53:35;25.60;99.90
24436;DHT22;12616;52.470;13.436;2022-07-30T12:56:11;25.90;99.90
24436;DHT22;12616;52.470;13.436;2022-07-30T12:58:38;25.90;99.90
24436;DHT22;12616;52.470;13.436;2022-07-30T13:01:06;26.00;99.90
24436;DHT22;12616;52.470;13.436;2022-07-30T13:03:32;26.10;99.90
24436;DHT22;12616;52.470;13.436;2022-07-30T13:06:14;26.20;99.90
24436;DHT22;12616;52.470;13.436;2022-07-30T13:08:49;25.90;99.90
24436;DHT22;12616;52.470;13.436;2022-07-30T13:11:17;25.90;99.90
24436;DHT22;12616;52.470;13.436;2022-07-30T13:13:44;26.00;99.90
24436;DHT22;12616;52.470;13.436;2022-07-30T13:16:11;25.80;99.90
24436;DHT22;12616;52.470;13.436;2022-07-30T13:18:38;25.80;99.90
24436;DHT22;12616;52.470;13.436;2022-07-30T13:21:06;25.80;99.90
24436;DHT22;12616;52.470;13.436;2022-07-30T13:23:35;25.70;99.90
24436;DHT22;12616;52.470;13.436;2022-07-30T13:26:02;25.70;99.90
24436;DHT22;12616;52.470;13.436;2022-07-30T13:28:31;25.80;99.90
24436;DHT22;12616;52.470;13.436;2022-07-30T13:30:58;25.90;99.90
24436;DHT22;12616;52.470;13.436;2022-07-30T13:33:25;25.90;99.90
24436;DHT22;12616;52.470;13.436;2022-07-30T13:35:52;25.70;99.90
24436;DHT22;12616;52.470;13.436;2022-07-30T13:38:19;25.70;99.90
24436;DHT22;12616;52.470;13.436;2022-07-30T13:40:47;25.60;99.90
24436;DHT22;12616;52.470;13.436;2022-07-30T13:43:14;25.80;99.90
24436;DHT22;12616;52.470;13.436;2022-07-30T13:45:40;26.00;99.90
24436;DHT22;12616;52.470;13.436;2022-07-30T13:48:07;26.20;99.90
24436;DHT22;12616;52.470;13.436;2022-07-30T13:50:34;25.90;99.90
24436;DHT22;12616;52.470;13.436;2022-07-30T13:53:01;26.00;99.90
24436;DHT22;12616;52.470;13.436;2022-07-30T13:55:27;26.30;99.90
24436;DHT22;12616;52.470;13.436;2022-07-30T13:57:58;26.10;99.90
24436;DHT22;12616;52.470;13.436;2022-07-30T14:00:26;26.10;99.90
24436;DHT22;12616;52.470;13.436;2022-07-30T14:02:57;26.20;99.90
24436;DHT22;12616;52.470;13.436;2022-07-30T14:05:24;26.20;99.90
24436;DHT22;12616;52.470;13.436;2022-07-30T14:07:51;26.00;99.90
24436;DHT22;12616;52.470;13.436;2022-07-30T14:10:19;26.10;99.90
24436;DHT22;12616;52.470;13.436;2022-07-30T14:12:47;26.00;99.90
24436;DHT22;12616;52.470;13.436;2022-07-30T14:15:15;25.80;99.90
24436;DHT22;12616;52.470;13.436;2022-07-30T14:17:42;25.80;99.90
24436;DHT22;12616;52.470;13.436;2022-07-30T14:20:09;25.90;99.90
24436;DHT22;12616;52.470;13.436;2022-07-30T14:22:37;25.90;99.90
24436;DHT22;12616;52.470;13.436;2022-07-30T14:25:04;26.00;99.90
24436;DHT22;12616;52.470;13.436;2022-07-30T14:27:31;26.10;99.90
24436;DHT22;12616;52.470;13.436;2022-07-30T14:29:58;25.90;99.90
24436;DHT22;12616;52.470;13.436;2022-07-30T14:32:26;25.60;99.90
24436;DHT22;12616;52.470;13.436;2022-07-30T14:34:53;25.50;99.90
24436;DHT22;12616;52.470;13.436;2022-07-30T14:37:19;25.70;99.90
24436;DHT22;12616;52.470;13.436;2022-07-30T14:39:46;25.80;99.90
24436;DHT22;12616;52.470;13.436;2022-07-30T14:42:13;25.80;99.90
24436;DHT22;12616;52.470;13.436;2022-07-30T14:44:40;26.10;99.90
24436;DHT22;12616;52.470;13.436;2022-07-30T14:47:07;26.10;99.90
24436;DHT22;12616;52.470;13.436;2022-07-30T14:49:35;25.90;99.90
24436;DHT22;12616;52.470;13.436;2022-07-30T14:52:01;25.90;99.90
24436;DHT22;12616;52.470;13.436;2022-07-30T14:54:28;26.00;99.90
24436;DHT22;12616;52.470;13.436;2022-07-30T14:56:55;25.90;99.90
24436;DHT22;12616;52.470;13.436;2022-07-30T14:59:22;25.80;99.90
24436;DHT22;12616;52.470;13.436;2022-07-30T15:01:49;25.70;99.90
24436;DHT22;12616;52.470;13.436;2022-07-30T15:04:17;25.50;99.90
24436;DHT22;12616;52.470;13.436;2022-07-30T15:06:45;25.40;99.90
24436;DHT22;12616;52.470;13.436;2022-07-30T15:09:11;25.30;99.90
24436;DHT22;12616;52.470;13.436;2022-07-30T15:11:38;25.30;99.90
24436;DHT22;12616;52.470;13.436;2022-07-30T15:14:05;25.40;99.90
24436;DHT22;12616;52.470;13.436;2022-07-30T15:16:32;25.60;99.90
24436;DHT22;12616;52.470;13.436;2022-07-30T15:18:58;25.60;99.90
24436;DHT22;12616;52.470;13.436;2022-07-30T15:21:25;25.80;99.90
24436;DHT22;12616;52.470;13.436;2022-07-30T15:23:53;25.80;99.90
24436;DHT22;12616;52.470;13.436;2022-07-30T15:26:20;25.80;99.90
24436;DHT22;12616;52.470;13.436;2022-07-30T15:28:47;25.80;99.90
24436;DHT22;12616;52.470;13.436;2022-07-30T15:31:14;25.90;99.90
24436;DHT22;12616;52.470;13.436;2022-07-30T15:33:40;25.80;99.90
24436;DHT22;12616;52.470;13.436;2022-07-30T15:36:09;25.80;99.90
24436;DHT22;12616;52.470;13.436;2022-07-30T15:38:36;25.80;99.90
24436;DHT22;12616;52.470;13.436;2022-07-30T15:41:05;25.70;99.90